Welcome to our Virtual Airline
Sign-in:

Flight MFC81101

  • Submitted By: James Smith
  • Departure Airport: Horsfeld (4Z5)
  • Arrival Airport: Glacier Creek Airport (KGZ)
  • Aircraft: MAULE M-7 (N260CMM-SK)
  • Flight Time: 00.36.06
  • Date Submitted: 21/09/08
  • Route: DIRECT – NO STOPS (BUT LOTS OF OPTIONAL STOPS IF YOU WANT).
  • Status: Accepted
Flight Details
Gross Revenue:
(3 load / $ 59.00 per unit
$ 177.00
Fuel Cost:
(15.4221 fuel used @ 5.1 / unit)
$ 78.65

Additional Log Information:

View Log

[16:18] ----- Flight Opened -----
[16:18] Cigar Box - 1.1.4.0
[16:18] FS: Prepar3D V4
[16:18] FSUIPC: v6.104
[16:18] Flight Number: MFC81101
[16:18] FS Aircraft: Maule M7 260C paint3
[16:18] FS Model: M7
[16:18] FS Type: MAULE
[16:18] Departure: 4Z5
[16:18] Arrival: KGZ
[16:18] Flight Level: 12500
[16:18] Flight Type: H
[16:18] Passengers: 3
[16:18] FOB: 86 lbs
[16:18] Gate: n/a
[16:18] NOTE: Parking Brake Ignored
[16:18] Crash Detection: Disabled
[16:18] Engines: 1 Piston
[16:18] NOTE: Boarding has started
[16:19] Parking Brake: Engaged
[16:19] Light Data: Navigation ON
[16:19] Light Data: Landing lights ON
[16:19] Light Data: Strobe lights ON
[16:19] Main Door Closed
[16:19] COM1: 122.90
[16:19] COM2: 124.85
[16:19] Transponder: 1200
[16:19] NAV1: 110.50
[16:19] NAV2: 110.50
[16:19] ADF1: 260.0
[16:19] ADF2: 890.0
[16:19] Navigation Mode: NAV
[16:19] Engine 1: Started
[16:20] Flaps: Position 2
[16:20] Flaps: Position 1
[16:20] Flaps: Position 2
[16:20] Parking Brake: Released
[16:20] NOTE: Taxi started
[16:20] NOTE: ----- TAKE OFF -----
[16:20] GS: 66 knots
[16:20] TAS: 60 knots
[16:20] IAS: 41 knots
[16:20] VS: 113 fpm
[16:20] FOB: 86 lbs
[16:20] Heading: 214°
[16:20] Pitch: 9°
[16:20] Bank: 4°
[16:20] Aircraft Weight: 2249.64 lbs
[16:20] Nearest Airport: 4Z5
[16:20] Distance: 0.21 miles
[16:20] Runway: ???
[16:20] Ground Surface: Forest
[16:20] Ground Condition: Normal
[16:20] NOTE: Weather Report
[16:20] Wind Heading: 340°
[16:20] Wind Speed: 10 knots
[16:20] OAT: 15° C
[16:20] TAT: 15° C
[16:20] Precipitation: None
[16:20] Dew Point: 9° C
[16:20] Visibility: 29 miles
[16:20] METAR:
[16:20] NOTE: Climb started
[16:20] View Mode: Virtual Cockpit
[16:21] Flaps: Position 1
[16:21] GS: 73 knots
[16:21] TAS: 71 knots
[16:21] IAS: 55 knots
[16:21] VS: 568 fpm
[16:21] Flaps: Position 0
[16:21] GS: 85 knots
[16:21] TAS: 82 knots
[16:21] IAS: 67 knots
[16:21] VS: 19 fpm
[16:28] Recovery: Flight Saved
[16:41] Flaps: Position 1
[16:41] GS: 91 knots
[16:41] TAS: 83 knots
[16:41] IAS: 67 knots
[16:41] VS: 259 fpm
[16:41] Flaps: Position 2
[16:41] GS: 99 knots
[16:41] TAS: 92 knots
[16:41] IAS: 77 knots
[16:41] VS: -279 fpm
[16:42] NOTE: ----- LANDED -----
[16:42] Landing Rate: -226.84 fpm
[16:42] GS: 75 knots
[16:42] TAS: 67 knots
[16:42] IAS: 48 knots
[16:42] VS: -222 fpm
[16:42] FOB: 62 lbs
[16:42] Heading: 195°
[16:42] Pitch: 5°
[16:42] Bank: 0°
[16:42] Aircraft Weight: 2224.93 lbs
[16:42] Nearest Airport: RUSS
[16:42] Distance: 0.34 miles
[16:42] Runway: ???
[16:42] Ground Surface: Hard Turf
[16:42] Ground Condition: Normal
[16:42] NOTE: Weather Report
[16:42] Wind Heading: 340°
[16:42] Wind Speed: 10 knots
[16:42] OAT: 11° C
[16:42] TAT: 12° C
[16:42] Precipitation: None
[16:42] Dew Point: 5° C
[16:42] Visibility: 29 miles
[16:42] METAR: KGZL 081955Z AUTO 02012G16KT 10SM CLR 30/00 A2998 RMK AO2 KGZN 082000Z AUTO 03008KT 10SM CLR 35/17 A2997 RMK AO2 KGZH 081953Z AUTO 09005KT 10SM FEW027 SCT065 31/22 A2987 RMK AO2 SLP109 T03060222
[16:42] View Mode: Virtual Cockpit
[16:43] Flaps: Position 1
[16:43] View Mode: Virtual Cockpit
[16:44] Flaps: Position 0
[16:44] GS: 91 knots
[16:44] TAS: 99 knots
[16:44] IAS: 86 knots
[16:44] VS: -229 fpm
[16:47] Recovery: Flight Saved
[16:52] Flaps: Position 1
[16:52] GS: 103 knots
[16:52] TAS: 98 knots
[16:52] IAS: 88 knots
[16:52] VS: -698 fpm
[16:52] Flaps: Position 2
[16:52] GS: 101 knots
[16:52] TAS: 96 knots
[16:52] IAS: 86 knots
[16:52] VS: -868 fpm
[16:54] Flaps: Position 3
[16:54] GS: 77 knots
[16:54] TAS: 68 knots
[16:54] IAS: 52 knots
[16:54] VS: 340 fpm
[16:54] Flaps: Position 4
[16:54] GS: 75 knots
[16:54] TAS: 85 knots
[16:54] IAS: 73 knots
[16:54] VS: -1686 fpm
[16:54] NOTE: ----- LANDED -----
[16:54] Landing Rate: -197.62 fpm
[16:54] GS: 60 knots
[16:54] TAS: 69 knots
[16:54] IAS: 54 knots
[16:54] VS: -195 fpm
[16:54] FOB: 52 lbs
[16:54] Heading: 293°
[16:54] Pitch: 0°
[16:54] Bank: 1°
[16:54] Aircraft Weight: 2215.79 lbs
[16:54] Nearest Airport: KGZ
[16:54] Distance: 0.09 miles
[16:54] Runway: ???
[16:54] Ground Surface: Urban
[16:54] Ground Condition: Normal
[16:54] NOTE: Weather Report
[16:54] Wind Heading: 340°
[16:54] Wind Speed: 10 knots
[16:54] OAT: 17° C
[16:54] TAT: 18° C
[16:54] Precipitation: None
[16:54] Dew Point: 11° C
[16:54] Visibility: 29 miles
[16:54] METAR: KGZL 081955Z AUTO 02012G16KT 10SM CLR 30/00 A2998 RMK AO2 KGZN 082000Z AUTO 03008KT 10SM CLR 35/17 A2997 RMK AO2 KGZH 081953Z AUTO 09005KT 10SM FEW027 SCT065 31/22 A2987 RMK AO2 SLP109 T03060222
[16:54] View Mode: Virtual Cockpit
[16:54] NOTE: Taxi started
[16:55] Flaps: Position 3
[16:55] Flaps: Position 1
[16:56] NOTE: Arrived
[16:56] Parking Brake: Engaged
[16:56] Engine 1: Stopped
[16:57] Gate: n/a
[16:57] NOTE: Flight Completed
[16:57] FS Aircraft: Maule M7 260C paint3
[16:57] FS Model: M7
[16:57] FS Type: MAULE
[16:57] FOB: 52 lbs
[16:57] Fuel Used: 34 lbs
[16:57] Flight Time: 00:36:06
[16:57] Flight Time (Dawn): 00:00:00
[16:57] Flight Time (Day): 00:36:06
[16:57] Flight Time (Dusk): 00:00:00
[16:57] Flight Time (Night): 00:00:00
[16:57] Total Landings: 2
[16:57] MaxSim Rate: 1x
[16:57] Cigar Box - 1.1.4.0
[16:57] ----- Flight Closed -----

Route Map